createdAt,value
2023-02-26T00:01:12.000Z,76.1
2023-02-26T00:02:27.937Z,76
2023-02-26T00:03:42.000Z,76
2023-02-26T00:04:59.000Z,76.1
2023-02-26T00:06:15.801Z,75.9
2023-02-26T00:07:31.000Z,75.5
2023-02-26T00:08:48.000Z,75.6
2023-02-26T00:10:04.000Z,75.8
2023-02-26T00:11:20.000Z,76
2023-02-26T00:12:37.000Z,75.9
2023-02-26T00:13:53.000Z,75.8
2023-02-26T00:15:09.000Z,75.8
2023-02-26T00:16:25.000Z,76
2023-02-26T00:17:42.000Z,76.1
2023-02-26T00:18:58.000Z,75.9
2023-02-26T00:20:13.000Z,75.8
2023-02-26T00:21:30.297Z,75.6
2023-02-26T00:22:46.000Z,75.3
2023-02-26T00:24:03.006Z,76
2023-02-26T00:25:19.160Z,76.5
2023-02-26T00:26:35.424Z,76.8
2023-02-26T00:27:51.000Z,76.7
2023-02-26T00:29:07.000Z,76.5
2023-02-26T00:30:24.000Z,76.5
2023-02-26T00:31:40.571Z,76.6
2023-02-26T00:32:55.000Z,76.8
2023-02-26T00:34:11.205Z,76.7
2023-02-26T00:35:27.000Z,76.3
2023-02-26T00:36:43.000Z,76.5
2023-02-26T00:37:59.000Z,76.5
2023-02-26T00:39:16.000Z,76.4
2023-02-26T00:40:32.000Z,77
2023-02-26T00:41:48.000Z,77
2023-02-26T00:43:04.000Z,77
2023-02-26T00:44:19.000Z,77.2
2023-02-26T00:45:35.000Z,76.6
2023-02-26T00:46:51.000Z,76.3
2023-02-26T00:48:08.000Z,76.1
2023-02-26T00:49:24.000Z,75.9
2023-02-26T00:50:40.000Z,75.9
2023-02-26T00:51:57.000Z,75.1
2023-02-26T00:53:13.000Z,75.1
2023-02-26T00:54:29.000Z,75.5
2023-02-26T00:55:45.000Z,75.2
2023-02-26T00:57:02.000Z,74.9
2023-02-26T00:58:18.000Z,74.8
2023-02-26T00:59:34.000Z,74.4
2023-02-26T01:00:50.000Z,74.4
2023-02-26T01:02:06.000Z,74.4
2023-02-26T01:03:22.000Z,74.3
2023-02-26T01:04:38.000Z,74.9
2023-02-26T01:05:55.000Z,75.1
2023-02-26T01:07:11.000Z,75.3
2023-02-26T01:08:27.000Z,75.5
2023-02-26T01:09:44.000Z,75.4
2023-02-26T01:11:00.000Z,75
2023-02-26T01:12:16.000Z,75
2023-02-26T01:13:33.197Z,75.2
2023-02-26T01:14:49.000Z,75.3
2023-02-26T01:16:05.000Z,75.3
2023-02-26T01:17:20.000Z,75.3
2023-02-26T01:18:37.394Z,75
2023-02-26T01:19:53.000Z,74.8
2023-02-26T01:21:09.000Z,74.8
2023-02-26T01:22:25.000Z,74.7
2023-02-26T01:23:42.000Z,75.1
2023-02-26T01:24:58.000Z,75.5
2023-02-26T01:26:14.000Z,75.6
2023-02-26T01:27:31.000Z,75.7
2023-02-26T01:28:47.000Z,76
2023-02-26T01:30:03.000Z,75.8
2023-02-26T01:31:20.258Z,75.6
2023-02-26T01:32:36.000Z,75.3
2023-02-26T01:33:51.000Z,75.3
2023-02-26T01:35:07.000Z,75.4
2023-02-26T01:36:24.000Z,75.3
2023-02-26T01:37:40.000Z,75.1
2023-02-26T01:38:56.000Z,75.3
2023-02-26T01:40:13.000Z,75.5
2023-02-26T01:41:29.000Z,75.3
2023-02-26T01:42:45.000Z,75.2
2023-02-26T01:44:01.000Z,75.2
2023-02-26T01:45:18.000Z,75.4
2023-02-26T01:46:34.000Z,75.2
2023-02-26T01:47:50.000Z,75.1
2023-02-26T01:49:07.000Z,75.2
2023-02-26T01:50:22.000Z,75.6
2023-02-26T01:51:38.000Z,75.5
2023-02-26T01:52:54.000Z,75.8
2023-02-26T01:54:11.000Z,76.3
2023-02-26T01:55:27.755Z,76
2023-02-26T01:56:43.000Z,76
2023-02-26T01:58:00.000Z,75.7
2023-02-26T01:59:16.000Z,76.2
2023-02-26T02:00:32.000Z,76.7
2023-02-26T02:01:49.185Z,77.1
2023-02-26T02:03:05.000Z,77
2023-02-26T02:04:21.000Z,76.6
2023-02-26T02:05:37.000Z,76.7
2023-02-26T02:06:53.000Z,77
2023-02-26T02:08:09.000Z,77.1
2023-02-26T02:09:25.920Z,77.1
2023-02-26T02:10:41.000Z,77.2
2023-02-26T02:11:57.000Z,77.1
2023-02-26T02:13:12.000Z,77.1
2023-02-26T02:14:27.000Z,77.1
2023-02-26T02:15:43.000Z,76.7
2023-02-26T02:16:59.000Z,77.1
2023-02-26T02:18:15.000Z,77.3
2023-02-26T02:19:32.000Z,77.4
2023-02-26T02:20:48.000Z,77.3
2023-02-26T02:22:04.000Z,77.7
2023-02-26T02:23:20.000Z,78.1
2023-02-26T02:24:37.000Z,78.5
2023-02-26T02:25:53.000Z,78.5
2023-02-26T02:27:09.000Z,78.7
2023-02-26T02:28:26.000Z,78.8
2023-02-26T02:29:42.618Z,78.8
2023-02-26T02:30:58.000Z,78.9
2023-02-26T02:32:13.000Z,78.8
2023-02-26T02:33:30.000Z,78.8
2023-02-26T02:34:46.000Z,78.8
2023-02-26T02:36:02.000Z,78.8
2023-02-26T02:37:19.000Z,78.4
2023-02-26T02:38:35.659Z,78.2
2023-02-26T02:39:51.000Z,78.2
2023-02-26T02:41:07.000Z,78.1
2023-02-26T02:42:22.000Z,78.1
2023-02-26T02:43:38.000Z,78.4
2023-02-26T02:44:55.147Z,78.4
2023-02-26T02:46:11.000Z,78.3
2023-02-26T02:47:27.706Z,78.3
2023-02-26T02:48:43.000Z,78.2
2023-02-26T02:49:59.000Z,78.4
2023-02-26T02:51:14.000Z,78.3
2023-02-26T02:52:30.000Z,78.3
2023-02-26T02:53:46.000Z,78.4
2023-02-26T02:55:03.000Z,78.4
2023-02-26T02:56:19.000Z,78.4
2023-02-26T02:57:35.000Z,78.3
2023-02-26T02:58:52.000Z,78.3
2023-02-26T03:00:08.640Z,78.3
2023-02-26T03:01:24.912Z,78.1
2023-02-26T03:02:40.000Z,78
2023-02-26T03:03:57.000Z,78.1
2023-02-26T03:05:13.000Z,78
2023-02-26T03:06:29.000Z,77.9
2023-02-26T03:07:45.000Z,77.8
2023-02-26T03:09:01.000Z,78
2023-02-26T03:10:17.000Z,78.1
2023-02-26T03:11:33.000Z,78
2023-02-26T03:12:50.000Z,77.8
2023-02-26T03:14:06.000Z,77.8
2023-02-26T03:15:22.000Z,77.9
2023-02-26T03:16:39.000Z,77.9
2023-02-26T03:17:55.000Z,78.1
2023-02-26T03:19:11.000Z,78.3
2023-02-26T03:20:28.000Z,78.6
2023-02-26T03:21:44.000Z,78.5
2023-02-26T03:23:00.000Z,78.6
2023-02-26T03:24:15.000Z,78.5
2023-02-26T03:25:32.000Z,78.5
2023-02-26T03:26:48.000Z,78.2
2023-02-26T03:28:04.000Z,78.1
2023-02-26T03:29:21.000Z,78.2
2023-02-26T03:30:37.000Z,78.3
2023-02-26T03:31:53.000Z,78.1
2023-02-26T03:33:09.000Z,77.9
2023-02-26T03:34:26.000Z,77.9
2023-02-26T03:35:42.000Z,77.9
2023-02-26T03:36:59.012Z,77.8
2023-02-26T03:38:15.289Z,77.8
2023-02-26T03:39:31.000Z,77.8
2023-02-26T03:40:46.000Z,77.8
2023-02-26T03:42:02.000Z,77.9
2023-02-26T03:43:19.000Z,77.9
2023-02-26T03:44:35.000Z,77.6
2023-02-26T03:45:51.000Z,77
2023-02-26T03:47:08.000Z,76.6
2023-02-26T03:48:24.000Z,76.8
2023-02-26T03:49:40.000Z,77.2
2023-02-26T03:50:56.000Z,77.7
2023-02-26T03:52:13.000Z,77.8
2023-02-26T03:53:29.000Z,77.8
2023-02-26T03:54:45.000Z,77.7
2023-02-26T03:56:02.000Z,77.3
2023-02-26T03:57:17.000Z,76.9
2023-02-26T03:58:33.000Z,76.8
2023-02-26T03:59:50.246Z,76.7
2023-02-26T04:01:06.000Z,76.8
2023-02-26T04:02:22.000Z,76.9
2023-02-26T04:03:38.000Z,77
2023-02-26T04:04:55.000Z,77
2023-02-26T04:06:11.000Z,77.2
2023-02-26T04:07:27.000Z,77
2023-02-26T04:08:44.000Z,77
2023-02-26T04:10:00.000Z,77.1
2023-02-26T04:11:16.000Z,77
2023-02-26T04:12:32.000Z,76.9
2023-02-26T04:13:48.000Z,76.8
2023-02-26T04:15:04.000Z,77.1
2023-02-26T04:16:20.000Z,77.1
2023-02-26T04:17:37.000Z,77.1
2023-02-26T04:18:53.000Z,76.9
2023-02-26T04:20:09.000Z,76.6
2023-02-26T04:21:25.000Z,76.4
2023-02-26T04:22:42.000Z,76.5
2023-02-26T04:23:58.000Z,76.4
2023-02-26T04:25:14.000Z,76.4
2023-02-26T04:26:31.000Z,76.6
2023-02-26T04:27:47.000Z,76.7
2023-02-26T04:29:03.000Z,76.6
2023-02-26T04:30:18.000Z,76.5
2023-02-26T04:31:35.000Z,76.1
2023-02-26T04:32:51.000Z,76.1
2023-02-26T04:34:07.000Z,76.7
2023-02-26T04:35:24.000Z,77.1
2023-02-26T04:36:40.000Z,77.1
2023-02-26T04:37:56.000Z,77.4
2023-02-26T04:39:12.000Z,77.3
2023-02-26T04:40:29.000Z,76.8
2023-02-26T04:41:45.759Z,76.8
2023-02-26T04:43:01.000Z,76.5
2023-02-26T04:44:18.000Z,76.4
2023-02-26T04:45:34.000Z,76.4
2023-02-26T04:46:49.000Z,76.7
2023-02-26T04:48:04.000Z,77
2023-02-26T04:49:21.000Z,77.3
2023-02-26T04:50:37.935Z,77.3
2023-02-26T04:51:53.000Z,77.2
2023-02-26T04:53:10.000Z,77.1
2023-02-26T04:54:26.681Z,77.1
2023-02-26T04:55:42.000Z,76.6
2023-02-26T04:56:59.000Z,76.5
2023-02-26T04:58:15.000Z,76.8
2023-02-26T04:59:31.000Z,76.6
2023-02-26T05:00:47.000Z,76.5
2023-02-26T05:02:04.000Z,76.4
2023-02-26T05:03:20.000Z,76.6
2023-02-26T05:04:35.000Z,76.8
2023-02-26T05:05:52.000Z,77.1
2023-02-26T05:07:08.000Z,77.3
2023-02-26T05:08:24.000Z,77.5
2023-02-26T05:09:40.000Z,77.2
2023-02-26T05:10:57.000Z,77
2023-02-26T05:12:13.000Z,77.1
2023-02-26T05:13:29.000Z,77.4
2023-02-26T05:14:46.000Z,77.3
2023-02-26T05:16:02.000Z,77.4
2023-02-26T05:17:18.000Z,77.5
2023-02-26T05:18:34.000Z,77.7
2023-02-26T05:19:51.000Z,77.9
2023-02-26T05:21:06.000Z,77.8
2023-02-26T05:22:23.057Z,77.7
2023-02-26T05:23:39.352Z,77.8
2023-02-26T05:24:55.000Z,77.6
2023-02-26T05:26:11.000Z,77.4
2023-02-26T05:27:27.000Z,77.3
2023-02-26T05:28:44.000Z,77.4
2023-02-26T05:30:00.000Z,77.4
2023-02-26T05:31:16.000Z,77.4
2023-02-26T05:32:33.369Z,77.1
2023-02-26T05:33:49.000Z,77.1
2023-02-26T05:35:05.000Z,77.1
2023-02-26T05:36:21.000Z,77.2
2023-02-26T05:37:37.000Z,77.3
2023-02-26T05:38:53.000Z,77.5
2023-02-26T05:40:09.000Z,77.6
2023-02-26T05:41:26.000Z,77.5
2023-02-26T05:42:42.000Z,77.4
2023-02-26T05:43:58.000Z,77.6
2023-02-26T05:45:14.000Z,77.8
2023-02-26T05:46:31.000Z,77.8
2023-02-26T05:47:47.000Z,77.8
2023-02-26T05:49:03.000Z,77.5
2023-02-26T05:50:20.000Z,77.7
2023-02-26T05:51:36.000Z,77.8
2023-02-26T05:52:52.000Z,77.6
2023-02-26T05:54:07.000Z,77.8
2023-02-26T05:55:24.000Z,78.1
2023-02-26T05:56:40.000Z,78.5
2023-02-26T05:57:56.000Z,78.2
2023-02-26T05:59:12.000Z,78
2023-02-26T06:00:29.000Z,78.3
2023-02-26T06:01:45.000Z,78.4
2023-02-26T06:03:01.000Z,78.7
2023-02-26T06:04:17.000Z,78.8
2023-02-26T06:05:33.000Z,78.6
2023-02-26T06:06:50.000Z,78.3
2023-02-26T06:08:06.000Z,78.1
2023-02-26T06:09:22.000Z,78.3
2023-02-26T06:10:38.152Z,78.5
2023-02-26T06:11:54.000Z,78.2
2023-02-26T06:13:10.000Z,78.3
2023-02-26T06:14:26.861Z,78.5
2023-02-26T06:15:42.000Z,78.6
2023-02-26T06:16:59.324Z,78.7
2023-02-26T06:18:15.000Z,78.8
2023-02-26T06:19:31.000Z,78.9
2023-02-26T06:20:47.000Z,78.9
2023-02-26T06:22:04.000Z,79.1
2023-02-26T06:23:20.527Z,79.2
2023-02-26T06:24:36.000Z,79.5
2023-02-26T06:25:52.000Z,79.3
2023-02-26T06:27:07.000Z,78.9
2023-02-26T06:28:24.000Z,78.9
2023-02-26T06:29:40.000Z,79
2023-02-26T06:30:56.000Z,79.3
2023-02-26T06:32:12.000Z,79.3
2023-02-26T06:33:29.000Z,79.4
2023-02-26T06:34:45.000Z,79.4
2023-02-26T06:36:01.000Z,79.2
2023-02-26T06:37:17.000Z,79.1
2023-02-26T06:38:34.000Z,79.2
2023-02-26T06:39:50.000Z,79.1
2023-02-26T06:41:06.000Z,79.1
2023-02-26T06:42:22.000Z,79.2
2023-02-26T06:43:38.271Z,79.3
2023-02-26T06:44:54.000Z,79.4
2023-02-26T06:46:10.000Z,79.5
2023-02-26T06:47:26.000Z,79.5
2023-02-26T06:48:43.205Z,79.6
2023-02-26T06:49:59.000Z,79.8
2023-02-26T06:51:15.670Z,79.8
2023-02-26T06:52:31.000Z,79.8
2023-02-26T06:53:47.000Z,79.8
2023-02-26T06:55:04.000Z,79.7
2023-02-26T06:56:20.000Z,79.7
2023-02-26T06:57:36.000Z,79.7
2023-02-26T06:58:52.000Z,79.5
2023-02-26T07:00:08.344Z,79.6
2023-02-26T07:01:24.589Z,80.1
2023-02-26T07:02:40.000Z,80.4
2023-02-26T07:03:56.000Z,80.4
2023-02-26T07:05:13.000Z,80.2
2023-02-26T07:06:29.000Z,80
2023-02-26T07:07:45.000Z,80.2
2023-02-26T07:09:01.000Z,80.2
2023-02-26T07:10:17.000Z,80.1
2023-02-26T07:11:34.000Z,79.7
2023-02-26T07:12:50.000Z,79.7
2023-02-26T07:14:06.000Z,79.1
2023-02-26T07:15:22.000Z,78.7
2023-02-26T07:16:38.383Z,78.5
2023-02-26T07:17:54.000Z,78.8
2023-02-26T07:19:10.000Z,79
2023-02-26T07:20:26.000Z,78.8
2023-02-26T07:21:43.000Z,78.8
2023-02-26T07:22:59.000Z,78.8
2023-02-26T07:24:15.000Z,78.7
2023-02-26T07:25:31.000Z,78.4
2023-02-26T07:26:48.000Z,78.1
2023-02-26T07:28:04.000Z,77.8
2023-02-26T07:29:20.000Z,77.5
2023-02-26T07:30:36.000Z,77.3
2023-02-26T07:31:52.000Z,76.5
2023-02-26T07:33:08.000Z,76.2
2023-02-26T07:34:24.000Z,75.8
2023-02-26T07:35:40.000Z,75.7
2023-02-26T07:36:56.000Z,75.4
2023-02-26T07:38:13.000Z,75.7
2023-02-26T07:39:29.000Z,75.7
2023-02-26T07:40:45.000Z,74.5
2023-02-26T07:42:01.000Z,71.8
2023-02-26T07:43:18.000Z,69.5
2023-02-26T07:44:34.000Z,67.8
2023-02-26T07:45:50.000Z,66.6
2023-02-26T07:47:06.000Z,66.8
2023-02-26T07:48:23.000Z,67.3
2023-02-26T07:49:38.000Z,65.4
2023-02-26T07:50:54.000Z,62.9
2023-02-26T07:53:26.000Z,61.8
2023-02-26T07:54:43.000Z,59.6
2023-02-26T07:55:59.000Z,59
2023-02-26T07:57:15.000Z,58.9
2023-02-26T07:58:32.176Z,58.3
2023-02-26T07:59:48.000Z,57.9
2023-02-26T08:01:04.000Z,56.6
2023-02-26T08:02:20.000Z,56.9
2023-02-26T08:03:36.000Z,55.3
2023-02-26T08:04:53.000Z,56.6
2023-02-26T08:06:08.000Z,55.6
2023-02-26T08:07:24.000Z,57.1
2023-02-26T08:08:40.000Z,56.6
2023-02-26T08:09:57.000Z,58.1
2023-02-26T08:11:13.000Z,59.7
2023-02-26T08:12:29.000Z,60.4
2023-02-26T08:13:45.983Z,60.8
2023-02-26T08:15:01.000Z,60.8
2023-02-26T08:16:18.000Z,60.9
2023-02-26T08:17:34.000Z,61.1
2023-02-26T08:18:50.904Z,61.2
2023-02-26T08:20:06.000Z,60
2023-02-26T08:21:23.351Z,58.8
2023-02-26T08:22:38.000Z,58.5
2023-02-26T08:23:54.000Z,56.8
2023-02-26T08:25:10.000Z,56.2
2023-02-26T08:26:27.000Z,56.3
2023-02-26T08:27:43.000Z,56.5
2023-02-26T08:28:59.000Z,55.4
2023-02-26T08:30:16.027Z,56.3
2023-02-26T08:31:32.000Z,54.8
2023-02-26T08:32:48.469Z,55.3
2023-02-26T08:34:04.000Z,55.5
2023-02-26T08:35:20.000Z,52.7
2023-02-26T08:36:37.171Z,50.8
2023-02-26T08:37:53.000Z,48.3
2023-02-26T08:39:08.000Z,45.7
2023-02-26T08:40:24.000Z,43.4
2023-02-26T08:41:40.000Z,44.8
2023-02-26T08:42:57.000Z,44.9
2023-02-26T08:44:13.000Z,45.1
2023-02-26T08:45:29.000Z,44.9
2023-02-26T08:46:45.000Z,44.8
2023-02-26T08:48:02.000Z,44.9
2023-02-26T08:49:18.532Z,44.7
2023-02-26T08:50:34.000Z,44.4
2023-02-26T08:51:50.000Z,44.4
2023-02-26T08:53:06.000Z,43.4
2023-02-26T08:54:23.000Z,42.7
2023-02-26T08:55:38.000Z,42.1
2023-02-26T08:56:54.000Z,42.9
2023-02-26T08:58:10.000Z,43.4
2023-02-26T08:59:27.000Z,42.7
2023-02-26T09:00:43.000Z,41.5
2023-02-26T09:01:59.000Z,40.8
2023-02-26T09:03:14.000Z,40.6
2023-02-26T09:04:31.000Z,41.4
2023-02-26T09:05:47.000Z,40.7
2023-02-26T09:07:03.000Z,42.2
2023-02-26T09:08:20.065Z,42.3
2023-02-26T09:09:36.000Z,42.3
2023-02-26T09:10:52.000Z,41.9
2023-02-26T09:12:08.000Z,42.3
2023-02-26T09:13:24.000Z,41.2
2023-02-26T09:14:40.000Z,41.3
2023-02-26T09:15:57.000Z,40.7
2023-02-26T09:17:13.000Z,40.4
2023-02-26T09:18:29.000Z,40.3
2023-02-26T09:19:44.000Z,40.6
2023-02-26T09:21:01.420Z,39.6
2023-02-26T09:22:17.000Z,40.9
2023-02-26T09:23:33.000Z,40.6
2023-02-26T09:24:50.119Z,40
2023-02-26T09:26:06.000Z,39.2
2023-02-26T09:27:22.000Z,39.4
2023-02-26T09:28:38.000Z,40.1
2023-02-26T09:29:54.000Z,40.5
2023-02-26T09:31:11.000Z,39.8
2023-02-26T09:32:27.000Z,37.8
2023-02-26T09:34:59.000Z,37.8
2023-02-26T09:36:14.000Z,38.6
2023-02-26T09:37:31.000Z,38.6
2023-02-26T09:38:47.000Z,38.9
2023-02-26T09:40:03.000Z,37.8
2023-02-26T09:41:19.000Z,38.9
2023-02-26T09:42:36.000Z,37.5
2023-02-26T09:43:52.000Z,36.2
2023-02-26T09:45:08.000Z,37.9
2023-02-26T09:46:24.000Z,38.4
2023-02-26T09:47:41.000Z,37.8
2023-02-26T09:48:57.577Z,36.2
2023-02-26T09:50:13.000Z,35.2
2023-02-26T09:51:29.000Z,36.1
2023-02-26T09:52:45.000Z,37
2023-02-26T09:54:01.000Z,41.2
2023-02-26T09:55:17.000Z,39
2023-02-26T09:56:33.000Z,38.1
2023-02-26T09:57:49.000Z,38.6
2023-02-26T09:59:06.000Z,36.3
2023-02-26T10:00:22.000Z,35.3
2023-02-26T10:01:38.000Z,36
2023-02-26T10:02:54.000Z,36.7
2023-02-26T10:04:11.000Z,35.3
2023-02-26T10:05:27.000Z,34.9
2023-02-26T10:06:43.000Z,36.5
2023-02-26T10:07:59.000Z,36.3
2023-02-26T10:09:15.000Z,34.6
2023-02-26T10:10:31.000Z,33.8
2023-02-26T10:11:47.000Z,34.7
2023-02-26T10:13:03.000Z,35.1
2023-02-26T10:14:20.000Z,35.5
2023-02-26T10:15:36.000Z,34.9
2023-02-26T10:16:52.000Z,35.6
2023-02-26T10:18:08.000Z,35.3
2023-02-26T10:19:24.000Z,37.8
2023-02-26T10:20:41.471Z,38
2023-02-26T10:21:57.000Z,38.8
2023-02-26T10:23:13.000Z,37.2
2023-02-26T10:24:29.000Z,36.4
2023-02-26T10:25:45.000Z,35.1
2023-02-26T10:27:01.000Z,37
2023-02-26T10:28:17.000Z,40.1
2023-02-26T10:29:33.000Z,39.5
2023-02-26T10:30:50.000Z,38.4
2023-02-26T10:32:06.000Z,39.1
2023-02-26T10:33:22.000Z,42.1
2023-02-26T10:34:38.000Z,42.1
2023-02-26T10:35:55.267Z,41.7
2023-02-26T10:37:11.530Z,38.5
2023-02-26T10:38:27.000Z,37.6
2023-02-26T10:39:43.000Z,38.4
2023-02-26T10:40:59.000Z,42.2
2023-02-26T10:42:15.000Z,43.2
2023-02-26T10:43:31.000Z,42.6
2023-02-26T10:44:47.000Z,41.8
2023-02-26T10:46:03.000Z,42.1
2023-02-26T10:47:20.000Z,43
2023-02-26T10:48:36.000Z,43.8
2023-02-26T10:51:08.000Z,42.1
2023-02-26T10:52:25.000Z,43.1
2023-02-26T10:53:41.000Z,44.4
2023-02-26T10:54:57.000Z,41.1
2023-02-26T10:56:13.000Z,42.5
2023-02-26T10:57:30.000Z,43
2023-02-26T10:58:45.000Z,43.2
2023-02-26T11:00:01.000Z,44.2
2023-02-26T11:01:17.000Z,42.9
2023-02-26T11:02:33.000Z,43.2
2023-02-26T11:03:50.000Z,43.7
2023-02-26T11:05:06.000Z,44.2
2023-02-26T11:06:22.000Z,44.1
2023-02-26T11:07:38.000Z,44.7
2023-02-26T11:08:55.000Z,44.3
2023-02-26T11:10:11.000Z,44.3
2023-02-26T11:11:27.000Z,41.8
2023-02-26T11:12:43.000Z,42.2
2023-02-26T11:14:00.000Z,39.8
2023-02-26T11:15:15.000Z,36.9
2023-02-26T11:16:31.828Z,34.3
2023-02-26T11:17:47.000Z,32.9
2023-02-26T11:19:04.000Z,34.5
2023-02-26T11:20:20.000Z,31.9
2023-02-26T11:21:36.000Z,32.6
2023-02-26T11:22:52.000Z,32.3
2023-02-26T11:24:08.000Z,31.8
2023-02-26T11:25:25.000Z,32.4
2023-02-26T11:26:41.000Z,30.8
2023-02-26T11:27:57.000Z,30.5
2023-02-26T11:29:13.000Z,29.7
2023-02-26T11:30:30.000Z,31.3
2023-02-26T11:31:45.000Z,31.6
2023-02-26T11:33:01.000Z,31.5
2023-02-26T11:34:17.000Z,31
2023-02-26T11:35:34.000Z,31.6
2023-02-26T11:36:50.000Z,34.3
2023-02-26T11:38:06.000Z,34.7
2023-02-26T11:39:22.000Z,34.1
2023-02-26T11:40:39.268Z,36.1
2023-02-26T11:41:55.000Z,36.2
2023-02-26T11:43:11.000Z,36.6
2023-02-26T11:44:27.000Z,38
2023-02-26T11:45:43.000Z,38.5
2023-02-26T11:47:00.000Z,37
2023-02-26T11:48:15.000Z,36.1
2023-02-26T11:49:31.000Z,34
2023-02-26T11:50:47.000Z,34.2
2023-02-26T11:52:04.381Z,34.1
2023-02-26T11:53:20.611Z,33.4
2023-02-26T11:54:36.000Z,33.1
2023-02-26T11:55:52.000Z,33
2023-02-26T11:57:09.000Z,33
2023-02-26T11:58:25.000Z,31.9
2023-02-26T11:59:41.000Z,30.8
2023-02-26T12:00:57.000Z,30.1
2023-02-26T12:02:13.000Z,30.2
2023-02-26T12:03:30.000Z,30.4
2023-02-26T12:04:45.000Z,30.4
2023-02-26T12:06:01.966Z,31.9
2023-02-26T12:07:17.000Z,31.4
2023-02-26T12:08:34.428Z,31.3
2023-02-26T12:09:50.000Z,34.2
2023-02-26T12:11:06.000Z,36.7
2023-02-26T12:12:22.000Z,33.8
2023-02-26T12:13:39.000Z,31.4
2023-02-26T12:14:55.000Z,30.8
2023-02-26T12:16:11.000Z,30.1
2023-02-26T12:17:27.000Z,29.1
2023-02-26T12:18:44.000Z,29.5
2023-02-26T12:20:00.000Z,29.3
2023-02-26T12:21:15.000Z,29.1
2023-02-26T12:22:31.000Z,29.9
2023-02-26T12:23:47.000Z,29.1
2023-02-26T12:25:04.472Z,28.6
2023-02-26T12:26:20.000Z,28.6
2023-02-26T12:28:52.000Z,27.3
2023-02-26T12:30:09.000Z,28
2023-02-26T12:31:25.638Z,27.5
2023-02-26T12:32:41.000Z,27.9
2023-02-26T12:33:57.000Z,29.1
2023-02-26T12:35:14.000Z,29.4
2023-02-26T12:36:30.000Z,30.6
2023-02-26T12:37:45.000Z,32.5
2023-02-26T12:39:01.000Z,31.3
2023-02-26T12:40:18.000Z,31.8
2023-02-26T12:41:34.000Z,31.3
2023-02-26T12:42:50.000Z,32.9
2023-02-26T12:44:07.002Z,35.9
2023-02-26T12:45:23.240Z,38.3
2023-02-26T12:46:39.000Z,38.2
2023-02-26T12:47:55.000Z,39
2023-02-26T12:49:11.000Z,38.3
2023-02-26T12:50:27.000Z,35.7
2023-02-26T12:51:44.000Z,36.4
2023-02-26T12:53:00.000Z,37.1
2023-02-26T12:54:15.000Z,37.8
2023-02-26T12:55:31.000Z,37.9
2023-02-26T12:56:48.362Z,36.8
2023-02-26T12:58:04.000Z,36.4
2023-02-26T12:59:20.000Z,34.7
2023-02-26T13:00:36.000Z,32.4
2023-02-26T13:01:53.000Z,31.1
2023-02-26T13:03:09.000Z,30.8
2023-02-26T13:04:25.000Z,29.3
2023-02-26T13:05:41.000Z,29.9
2023-02-26T13:06:57.000Z,30.8
2023-02-26T13:08:14.000Z,31
2023-02-26T13:10:46.926Z,28.6
2023-02-26T13:12:01.000Z,27.9
2023-02-26T13:13:18.000Z,27.9
2023-02-26T13:14:34.000Z,28
2023-02-26T13:15:50.000Z,30.4
2023-02-26T13:17:06.000Z,29
2023-02-26T13:18:22.000Z,28.9
2023-02-26T13:19:38.000Z,28.5
2023-02-26T13:20:54.000Z,28.7
2023-02-26T13:22:10.000Z,28.8
2023-02-26T13:23:27.000Z,29.3
2023-02-26T13:24:43.528Z,29.9
2023-02-26T13:25:59.000Z,29
2023-02-26T13:27:15.000Z,29.4
2023-02-26T13:28:31.000Z,29.6
2023-02-26T13:29:48.000Z,29.1
2023-02-26T13:31:04.000Z,29.7
2023-02-26T13:32:20.000Z,30.9
2023-02-26T13:33:36.000Z,31
2023-02-26T13:34:52.000Z,32.7
2023-02-26T13:36:08.000Z,33.2
2023-02-26T13:37:24.000Z,34.2
2023-02-26T13:38:40.000Z,35.2
2023-02-26T13:39:57.000Z,35.5
2023-02-26T13:41:13.000Z,35.7
2023-02-26T13:42:29.000Z,35.9
2023-02-26T13:43:46.034Z,36.3
2023-02-26T13:45:02.000Z,36.7
2023-02-26T13:46:18.000Z,37.8
2023-02-26T13:47:34.000Z,38.3
2023-02-26T13:48:50.000Z,38.2
2023-02-26T13:50:06.000Z,38.5
2023-02-26T13:51:22.000Z,39.1
2023-02-26T13:52:38.000Z,38.9
2023-02-26T13:53:54.000Z,39
2023-02-26T13:55:10.000Z,38.7
2023-02-26T13:56:27.405Z,38.8
2023-02-26T13:57:43.000Z,39.8
2023-02-26T13:58:59.000Z,39.6
2023-02-26T14:00:16.100Z,39.3
2023-02-26T14:01:32.000Z,39.5
2023-02-26T14:02:48.000Z,39
2023-02-26T14:04:04.799Z,39.1
2023-02-26T14:05:20.000Z,39.8
2023-02-26T14:06:37.000Z,39.2
2023-02-26T14:07:52.000Z,40.1
2023-02-26T14:09:08.000Z,38.5
2023-02-26T14:10:24.000Z,38.1
2023-02-26T14:11:41.185Z,38
2023-02-26T14:12:57.000Z,37.9
2023-02-26T14:14:13.000Z,38.6
2023-02-26T14:15:29.000Z,38.4
2023-02-26T14:16:45.000Z,39.1
2023-02-26T14:18:02.000Z,38.8
2023-02-26T14:19:18.000Z,39.6
2023-02-26T14:20:34.000Z,38.9
2023-02-26T14:21:50.000Z,39.5
2023-02-26T14:23:07.000Z,41
2023-02-26T14:24:22.000Z,40.7
2023-02-26T14:25:38.000Z,40.2
2023-02-26T14:26:54.000Z,39.9
2023-02-26T14:28:11.000Z,40.8
2023-02-26T14:29:27.000Z,40.4
2023-02-26T14:30:43.000Z,40.6
2023-02-26T14:31:59.000Z,42.1
2023-02-26T14:33:15.000Z,42.1
2023-02-26T14:34:32.000Z,41
2023-02-26T14:35:48.000Z,40.9
2023-02-26T14:37:04.000Z,40.2
2023-02-26T14:38:20.000Z,39.5
2023-02-26T14:39:37.000Z,40.2
2023-02-26T14:40:52.582Z,39.8
2023-02-26T14:42:08.000Z,40.2
2023-02-26T14:43:24.000Z,40.3
2023-02-26T14:44:41.000Z,41
2023-02-26T14:45:57.000Z,40.8
2023-02-26T14:47:13.000Z,41.1
2023-02-26T14:48:29.000Z,41.7
2023-02-26T14:49:45.000Z,41.2
2023-02-26T14:51:02.451Z,41.8
2023-02-26T14:52:18.000Z,41.3
2023-02-26T14:53:34.000Z,42
2023-02-26T14:54:50.000Z,41.5
2023-02-26T14:56:07.000Z,41.5
2023-02-26T14:57:22.000Z,41.2
2023-02-26T14:58:38.000Z,41.3
2023-02-26T14:59:54.000Z,41.2
2023-02-26T15:01:11.000Z,41.8
2023-02-26T15:02:27.000Z,41.9
2023-02-26T15:03:43.831Z,42.1
2023-02-26T15:04:59.000Z,42.4
2023-02-26T15:06:16.000Z,42.4
2023-02-26T15:07:32.000Z,43.1
2023-02-26T15:08:48.000Z,42.7
2023-02-26T15:10:04.000Z,43.8
2023-02-26T15:11:20.000Z,44.1
2023-02-26T15:12:37.000Z,43.1
2023-02-26T15:13:52.000Z,43.7
2023-02-26T15:15:08.000Z,44.1
2023-02-26T15:16:25.157Z,43.8
2023-02-26T15:17:41.000Z,44.5
2023-02-26T15:18:57.000Z,44.3
2023-02-26T15:20:13.000Z,44.1
2023-02-26T15:21:29.000Z,44.3
2023-02-26T15:22:46.000Z,43.5
2023-02-26T15:24:02.000Z,43.5
2023-02-26T15:25:18.000Z,42.7
2023-02-26T15:26:34.000Z,42.4
2023-02-26T15:27:51.000Z,42.3
2023-02-26T15:30:23.000Z,43.3
2023-02-26T15:31:38.000Z,43.9
2023-02-26T15:32:54.000Z,44
2023-02-26T15:34:11.000Z,44.9
2023-02-26T15:35:27.000Z,44.8
2023-02-26T15:36:43.000Z,45.7
2023-02-26T15:37:59.000Z,44.8
2023-02-26T15:39:16.000Z,44.2
2023-02-26T15:40:32.000Z,45
2023-02-26T15:41:48.000Z,45.8
2023-02-26T15:43:04.000Z,45.5
2023-02-26T15:44:21.000Z,46.4
2023-02-26T15:45:37.000Z,46.8
2023-02-26T15:46:53.000Z,47
2023-02-26T15:48:08.000Z,47.3
2023-02-26T15:49:25.000Z,47.7
2023-02-26T15:50:41.000Z,47.3
2023-02-26T15:51:57.000Z,47.9
2023-02-26T15:53:13.000Z,47.7
2023-02-26T15:54:29.000Z,48
2023-02-26T15:55:46.000Z,47.7
2023-02-26T15:57:02.000Z,48.6
2023-02-26T15:58:18.000Z,47.8
2023-02-26T15:59:34.000Z,47.2
2023-02-26T16:00:51.000Z,48
2023-02-26T16:02:07.000Z,47.2
2023-02-26T16:03:23.000Z,47.3
2023-02-26T16:04:38.000Z,47
2023-02-26T16:05:55.000Z,47.2
2023-02-26T16:07:11.000Z,47
2023-02-26T16:08:27.000Z,47.7
2023-02-26T16:09:43.000Z,47.6
2023-02-26T16:11:00.000Z,47.8
2023-02-26T16:12:16.000Z,47.4
2023-02-26T16:13:32.000Z,48.1
2023-02-26T16:14:48.000Z,48.3
2023-02-26T16:16:04.000Z,48.5
2023-02-26T16:17:21.000Z,48
2023-02-26T16:18:37.000Z,48.3
2023-02-26T16:21:09.000Z,48
2023-02-26T16:22:25.000Z,48.2
2023-02-26T16:23:41.000Z,48.3
2023-02-26T16:24:57.000Z,48.6
2023-02-26T16:26:13.000Z,48.6
2023-02-26T16:27:30.000Z,48.5
2023-02-26T16:28:46.000Z,49.3
2023-02-26T16:30:02.000Z,49.5
2023-02-26T16:31:18.000Z,49.7
2023-02-26T16:32:34.000Z,50.4
2023-02-26T16:33:51.000Z,50.4
2023-02-26T16:35:07.000Z,49.8
2023-02-26T16:36:23.952Z,49.8
2023-02-26T16:37:39.000Z,49.9
2023-02-26T16:38:55.000Z,49.9
2023-02-26T16:40:11.000Z,50
2023-02-26T16:41:27.000Z,50.4
2023-02-26T16:42:43.000Z,50.6
2023-02-26T16:44:00.000Z,50.6
2023-02-26T16:45:16.594Z,50.7
2023-02-26T16:46:32.000Z,51.2
2023-02-26T16:47:48.000Z,51
2023-02-26T16:49:05.000Z,50.7
2023-02-26T16:50:21.000Z,51.1
2023-02-26T16:51:37.000Z,51.5
2023-02-26T16:52:53.000Z,50.7
2023-02-26T16:54:09.000Z,50.9
2023-02-26T16:55:25.000Z,51.3
2023-02-26T16:56:41.000Z,51.5
2023-02-26T16:59:13.000Z,51.6
2023-02-26T17:00:30.000Z,51.5
2023-02-26T17:01:46.000Z,51.5
2023-02-26T17:03:02.000Z,51.7
2023-02-26T17:04:18.000Z,51.9
2023-02-26T17:05:35.000Z,52.6
2023-02-26T17:06:51.000Z,52.7
2023-02-26T17:08:07.808Z,53.2
2023-02-26T17:09:24.041Z,53.4
2023-02-26T17:11:56.000Z,53.3